Wetterdaten: Woche 07.12.20 - 13.12.20 (KW50)
Datum Zeit Temp. Aussen Temp. o. S. Temp +5cm Feuchte Auss Luftdruck Regen Sonnenschein Regendauer Solar Windben Empfang
07.12.2020 00:00 3,7 C 2,9 C 3,2 C 99 % 997,8 hPa 0,2 l/m 0,00 h 0,70 h 0 W/m 5,1 km/h (1 Bft) 94,68 %
07.12.2020 01:00 3,4 C 2,8 C 2,8 C 99 % 997,6 hPa 1,4 l/m 0,00 h 1,00 h 0 W/m 7,8 km/h (2 Bft) 95,80 %
07.12.2020 02:00 3,2 C 2,8 C 2,8 C 99 % 997,3 hPa 1,2 l/m 0,00 h 1,00 h 0 W/m 9,9 km/h (2 Bft) 94,47 %
07.12.2020 03:00 3,3 C 2,8 C 2,8 C 99 % 996,8 hPa 1,2 l/m 0,00 h 1,00 h 0 W/m 10,3 km/h (2 Bft) 99,00 %
07.12.2020 04:00 3,0 C 2,2 C 2,8 C 99 % 996,8 hPa 0,6 l/m 0,00 h 0,97 h 0 W/m 12,8 km/h (3 Bft) 97,79 %
07.12.2020 05:00 3,0 C 2,2 C 2,8 C 99 % 996,7 hPa 0,4 l/m 0,00 h 0,67 h 0 W/m 12,4 km/h (3 Bft) 96,08 %
07.12.2020 06:00 2,9 C 2,2 C 2,8 C 99 % 996,8 hPa 0,4 l/m 0,00 h 0,97 h 0 W/m 19,1 km/h (3 Bft) 98,08 %
07.12.2020 07:00 2,8 C 2,2 C 2,8 C 99 % 996,9 hPa 0,4 l/m 0,00 h 1,00 h 0 W/m 22,4 km/h (4 Bft) 95,41 %
07.12.2020 08:00 2,6 C 2,2 C 2,4 C 99 % 997,4 hPa 0,8 l/m 0,00 h 1,00 h 6 W/m 20,1 km/h (4 Bft) 97,16 %
07.12.2020 09:00 2,7 C 2,2 C 2,8 C 99 % 997,9 hPa 0,4 l/m 0,00 h 0,93 h 14 W/m 18,3 km/h (3 Bft) 99,32 %
07.12.2020 10:00 2,7 C 2,2 C 2,8 C 99 % 998,5 hPa 0,6 l/m 0,00 h 0,93 h 22 W/m 19,2 km/h (3 Bft) 96,05 %
07.12.2020 11:00 3,0 C 2,4 C 2,9 C 99 % 998,8 hPa 0,4 l/m 0,00 h 1,00 h 34 W/m 15,6 km/h (3 Bft) 99,77 %
07.12.2020 12:00 3,3 C 2,8 C 3,4 C 99 % 999,1 hPa 0,2 l/m 0,00 h 0,80 h 37 W/m 16,6 km/h (3 Bft) 97,35 %
07.12.2020 13:00 3,4 C 2,8 C 3,4 C 99 % 999,3 hPa 0,6 l/m 0,00 h 1,00 h 32 W/m 15,2 km/h (3 Bft) 94,66 %
07.12.2020 14:00 3,8 C 3,2 C 3,8 C 99 % 999,4 hPa 0,0 l/m 0,00 h 0,37 h 48 W/m 9,3 km/h (2 Bft) 97,44 %
07.12.2020 15:00 4,3 C 3,5 C 3,9 C 99 % 999,8 hPa 0,2 l/m 0,00 h 0,43 h 21 W/m 5,9 km/h (2 Bft) 95,38 %
07.12.2020 16:00 4,3 C 3,3 C 3,9 C 99 % 1000,2 hPa 0,0 l/m 0,00 h 0,13 h 8 W/m 0,0 km/h (0 Bft) 96,15 %
07.12.2020 17:00 4,1 C 3,3 C 3,9 C 98 % 1000,6 hPa 0,0 l/m 0,00 h 0,00 h 0 W/m 0,2 km/h (0 Bft) 99,07 %
07.12.2020 18:00 4,0 C 3,2 C 3,7 C 98 % 1001,0 hPa 0,0 l/m 0,00 h 0,00 h 0 W/m 1,5 km/h (1 Bft) 96,21 %
07.12.2020 19:00 3,4 C 2,4 C 2,9 C 98 % 1001,3 hPa 0,0 l/m 0,00 h 0,00 h 0 W/m 3,5 km/h (1 Bft) 98,60 %
07.12.2020 20:00 2,9 C 2,2 C 2,8 C 98 % 1001,7 hPa 0,0 l/m 0,00 h 0,00 h 0 W/m 1,4 km/h (1 Bft) 96,49 %
07.12.2020 21:00 2,7 C 1,8 C 2,3 C 98 % 1002,0 hPa 0,0 l/m 0,00 h 0,00 h 0 W/m 1,3 km/h (1 Bft) 97,86 %
07.12.2020 22:00 2,5 C 1,7 C 2,1 C 97 % 1001,9 hPa 0,0 l/m 0,00 h 0,00 h 0 W/m 3,1 km/h (1 Bft) 98,43 %
07.12.2020 23:00 1,9 C 0,4 C 1,0 C 97 % 1001,9 hPa 0,0 l/m 0,00 h 0,00 h 0 W/m 0,0 km/h (0 Bft) 98,79 %
08.12.2020 00:00 1,1 C 0,3 C 0,6 C 97 % 1002,1 hPa 0,0 l/m 0,00 h 0,00 h 0 W/m 0,1 km/h (0 Bft) 98,04 %
08.12.2020 01:00 0,9 C 0,2 C 0,6 C 97 % 1002,0 hPa 0,0 l/m 0,00 h 0,00 h 0 W/m 0,6 km/h (0 Bft) 97,51 %
08.12.2020 02:00 0,7 C -0,4 C 0,2 C 97 % 1002,0 hPa 0,0 l/m 0,00 h 0,00 h 0 W/m 0,1 km/h (0 Bft) 98,24 %
08.12.2020 03:00 0,3 C -0,2 C 0,3 C 97 % 1002,2 hPa 0,0 l/m 0,00 h 0,00 h 0 W/m 0,0 km/h (0 Bft) 96,51 %
08.12.2020 04:00 0,7 C 0,6 C 1,1 C 98 % 1002,2 hPa 0,0 l/m 0,00 h 0,00 h 0 W/m 0,0 km/h (0 Bft) 99,50 %
08.12.2020 05:00 1,0 C 0,6 C 1,2 C 98 % 1002,2 hPa 0,0 l/m 0,00 h 0,00 h 0 W/m 0,0 km/h (0 Bft) 99,08 %
08.12.2020 06:00 1,3 C 1,0 C 1,7 C 98 % 1002,4 hPa 0,0 l/m 0,00 h 0,00 h 0 W/m 0,0 km/h (0 Bft) 96,74 %
08.12.2020 07:00 1,9 C 2,0 C 2,1 C 99 % 1002,6 hPa 0,0 l/m 0,00 h 0,00 h 0 W/m 0,3 km/h (0 Bft) 99,29 %
08.12.2020 08:00 2,7 C 2,6 C 2,7 C 99 % 1003,1 hPa 0,0 l/m 0,00 h 0,00 h 0 W/m 2,4 km/h (1 Bft) 95,44 %
08.12.2020 09:00 3,0 C 2,8 C 2,9 C 99 % 1003,6 hPa 0,0 l/m 0,00 h 0,00 h 15 W/m 1,1 km/h (0 Bft) 94,67 %
08.12.2020 10:00 3,3 C 3,2 C 3,4 C 99 % 1003,8 hPa 0,0 l/m 0,00 h 0,00 h 30 W/m 0,1 km/h (0 Bft) 96,80 %
08.12.2020 11:00 3,8 C 4,2 C 4,2 C 98 % 1003,9 hPa 0,0 l/m 0,00 h 0,00 h 73 W/m 0,2 km/h (0 Bft) 95,58 %
08.12.2020 12:00 4,9 C 6,4 C 5,4 C 97 % 1003,7 hPa 0,0 l/m 0,10 h 0,00 h 102 W/m 0,0 km/h (0 Bft) 97,67 %
08.12.2020 13:00 4,9 C 5,4 C 4,9 C 92 % 1003,7 hPa 0,0 l/m 0,00 h 0,00 h 72 W/m 0,3 km/h (0 Bft) 98,58 %
08.12.2020 14:00 5,2 C 5,5 C 5,1 C 90 % 1003,6 hPa 0,0 l/m 0,00 h 0,00 h 63 W/m 0,0 km/h (0 Bft) 96,94 %
08.12.2020 15:00 5,3 C 4,8 C 4,7 C 89 % 1004,0 hPa 0,0 l/m 0,00 h 0,00 h 18 W/m 0,0 km/h (0 Bft) 98,02 %
08.12.2020 16:00 5,0 C 4,1 C 4,1 C 89 % 1004,5 hPa 0,0 l/m 0,00 h 0,00 h 5 W/m 0,0 km/h (0 Bft) 96,87 %
08.12.2020 17:00 4,5 C 3,8 C 3,9 C 89 % 1005,2 hPa 0,0 l/m 0,00 h 0,10 h 0 W/m 0,0 km/h (0 Bft) 98,44 %
08.12.2020 18:00 4,3 C 3,2 C 3,9 C 90 % 1005,9 hPa 0,2 l/m 0,00 h 0,47 h 0 W/m 0,0 km/h (0 Bft) 99,63 %
08.12.2020 19:00 4,2 C 2,8 C 3,5 C 92 % 1006,3 hPa 0,2 l/m 0,00 h 0,87 h 0 W/m 0,0 km/h (0 Bft) 94,03 %
08.12.2020 20:00 4,0 C 2,8 C 3,4 C 93 % 1006,6 hPa 0,2 l/m 0,00 h 0,83 h 0 W/m 0,0 km/h (0 Bft) 99,29 %
08.12.2020 21:00 3,8 C 2,8 C 3,4 C 94 % 1007,0 hPa 0,0 l/m 0,00 h 0,17 h 0 W/m 0,0 km/h (0 Bft) 98,43 %
08.12.2020 22:00 3,6 C 2,7 C 3,4 C 95 % 1007,3 hPa 0,0 l/m 0,00 h 0,00 h 0 W/m 0,0 km/h (0 Bft) 97,50 %
08.12.2020 23:00 3,4 C 2,8 C 3,4 C 96 % 1007,6 hPa 0,0 l/m 0,00 h 0,00 h 0 W/m 0,0 km/h (0 Bft) 99,07 %
09.12.2020 00:00 3,2 C 2,2 C 3,0 C 96 % 1007,8 hPa 0,0 l/m 0,00 h 0,00 h 0 W/m 0,0 km/h (0 Bft) 98,23 %
09.12.2020 01:00 2,8 C 2,2 C 2,8 C 96 % 1008,0 hPa 0,0 l/m 0,00 h 0,00 h 0 W/m 1,2 km/h (1 Bft) 97,01 %
09.12.2020 02:00 2,7 C 2,1 C 2,8 C 97 % 1008,4 hPa 0,0 l/m 0,00 h 0,00 h 0 W/m 3,5 km/h (1 Bft) 93,90 %
09.12.2020 03:00 2,5 C 1,7 C 2,8 C 97 % 1008,7 hPa 0,0 l/m 0,00 h 0,00 h 0 W/m 2,3 km/h (1 Bft) 95,83 %
09.12.2020 04:00 2,4 C 1,7 C 2,8 C 98 % 1008,9 hPa 0,0 l/m 0,00 h 0,00 h 0 W/m 2,2 km/h (1 Bft) 94,66 %
09.12.2020 05:00 2,1 C 1,5 C 2,3 C 98 % 1009,2 hPa 0,0 l/m 0,00 h 0,00 h 0 W/m 7,1 km/h (2 Bft) 96,51 %
09.12.2020 06:00 1,3 C 0,4 C 1,4 C 97 % 1009,5 hPa 0,0 l/m 0,00 h 0,00 h 0 W/m 9,2 km/h (2 Bft) 95,15 %
09.12.2020 07:00 0,5 C 0,0 C 1,1 C 98 % 1009,9 hPa 0,0 l/m 0,00 h 0,00 h 0 W/m 6,8 km/h (2 Bft) 94,03 %
09.12.2020 08:00 0,4 C -0,6 C -0,0 C 98 % 1010,4 hPa 0,0 l/m 0,00 h 0,00 h 5 W/m 0,4 km/h (0 Bft) 96,74 %
09.12.2020 09:00 -0,1 C -0,9 C -1,1 C 98 % 1010,4 hPa 0,0 l/m 0,00 h 0,00 h 22 W/m 0,0 km/h (0 Bft) 99,12 %
09.12.2020 10:00 0,1 C 0,7 C -0,1 C 98 % 1010,8 hPa 0,0 l/m 0,00 h 0,00 h 43 W/m 0,0 km/h (0 Bft) 96,05 %
09.12.2020 11:00 1,3 C 5,1 C 1,5 C 99 % 1011,0 hPa 0,0 l/m 0,80 h 0,00 h 174 W/m 1,7 km/h (1 Bft) 98,58 %
09.12.2020 12:00 2,9 C 7,3 C 4,8 C 99 % 1010,5 hPa 0,0 l/m 1,00 h 0,00 h 245 W/m 8,4 km/h (2 Bft) 98,11 %
09.12.2020 13:00 4,2 C 8,5 C 6,6 C 92 % 1010,3 hPa 0,0 l/m 1,00 h 0,00 h 243 W/m 8,1 km/h (2 Bft) 97,65 %
09.12.2020 14:00 4,8 C 7,4 C 5,5 C 87 % 1010,0 hPa 0,0 l/m 1,00 h 0,00 h 169 W/m 7,5 km/h (2 Bft) 95,23 %
09.12.2020 15:00 4,3 C 4,8 C 2,7 C 88 % 1010,0 hPa 0,0 l/m 0,50 h 0,00 h 56 W/m 6,7 km/h (2 Bft) 98,25 %
09.12.2020 16:00 3,4 C 2,2 C 1,3 C 89 % 1009,8 hPa 0,0 l/m 0,00 h 0,00 h 9 W/m 2,3 km/h (1 Bft) 97,66 %
09.12.2020 17:00 2,4 C 1,2 C 0,3 C 90 % 1010,0 hPa 0,0 l/m 0,00 h 0,00 h 0 W/m 1,6 km/h (1 Bft) 96,37 %
09.12.2020 18:00 1,7 C 0,6 C -0,5 C 91 % 1010,2 hPa 0,0 l/m 0,00 h 0,00 h 0 W/m 0,4 km/h (0 Bft) 97,49 %
09.12.2020 19:00 1,1 C 0,4 C -0,8 C 93 % 1010,5 hPa 0,0 l/m 0,00 h 0,00 h 0 W/m 0,0 km/h (0 Bft) 98,43 %
09.12.2020 20:00 0,5 C -1,2 C -2,0 C 93 % 1010,5 hPa 0,0 l/m 0,00 h 0,00 h 0 W/m 0,0 km/h (0 Bft) 97,39 %
09.12.2020 21:00 -0,5 C -1,6 C -2,2 C 93 % 1010,3 hPa 0,0 l/m 0,00 h 0,00 h 0 W/m 0,0 km/h (0 Bft) 97,40 %
09.12.2020 22:00 -0,5 C -1,1 C -1,8 C 95 % 1010,3 hPa 0,0 l/m 0,00 h 0,00 h 0 W/m 0,6 km/h (0 Bft) 97,43 %
09.12.2020 23:00 -0,8 C -1,6 C -2,3 C 95 % 1010,0 hPa 0,0 l/m 0,00 h 0,00 h 0 W/m 0,9 km/h (0 Bft) 94,29 %
10.12.2020 00:00 -0,9 C -1,7 C -2,3 C 96 % 1009,6 hPa 0,0 l/m 0,00 h 0,00 h 0 W/m 3,0 km/h (1 Bft) 96,25 %
10.12.2020 01:00 -0,9 C -1,5 C -2,3 C 96 % 1009,3 hPa 0,0 l/m 0,00 h 0,00 h 0 W/m 6,0 km/h (2 Bft) 96,72 %
10.12.2020 02:00 -0,8 C -1,3 C -2,3 C 97 % 1008,8 hPa 0,0 l/m 0,00 h 0,00 h 0 W/m 9,0 km/h (2 Bft) 98,43 %
10.12.2020 03:00 -0,9 C -1,6 C -2,3 C 97 % 1008,4 hPa 0,0 l/m 0,00 h 0,00 h 0 W/m 7,9 km/h (2 Bft) 98,57 %
10.12.2020 04:00 -1,1 C -1,7 C -2,3 C 97 % 1007,9 hPa 0,0 l/m 0,00 h 0,00 h 0 W/m 7,1 km/h (2 Bft) 96,40 %
10.12.2020 05:00 -1,1 C -1,7 C -2,3 C 97 % 1007,5 hPa 0,0 l/m 0,00 h 0,00 h 0 W/m 4,3 km/h (1 Bft) 98,23 %
10.12.2020 06:00 -1,2 C -1,7 C -2,3 C 97 % 1007,5 hPa 0,0 l/m 0,00 h 0,00 h 0 W/m 2,5 km/h (1 Bft) 97,68 %
10.12.2020 07:00 -1,3 C -1,8 C -2,5 C 97 % 1007,5 hPa 0,0 l/m 0,00 h 0,00 h 0 W/m 1,7 km/h (1 Bft) 98,11 %
10.12.2020 08:00 -1,5 C -2,0 C -2,8 C 97 % 1007,8 hPa 0,0 l/m 0,00 h 0,00 h 0 W/m 0,0 km/h (0 Bft) 96,89 %
10.12.2020 09:00 0,1 C 1,0 C -1,6 C 98 % 1007,8 hPa 0,0 l/m 0,00 h 0,00 h 21 W/m 0,6 km/h (0 Bft) 100,00 %
10.12.2020 10:00 0,5 C 0,5 C -0,6 C 97 % 1007,9 hPa 0,0 l/m 0,00 h 0,00 h 30 W/m 2,2 km/h (1 Bft) 94,26 %
10.12.2020 11:00 0,8 C 1,5 C 0,1 C 96 % 1007,7 hPa 0,2 l/m 0,00 h 0,00 h 68 W/m 3,5 km/h (1 Bft) 95,92 %
10.12.2020 12:00 1,2 C 1,2 C 0,5 C 95 % 1007,2 hPa 0,0 l/m 0,00 h 0,00 h 57 W/m 1,0 km/h (0 Bft) 96,40 %
10.12.2020 13:00 1,6 C 1,7 C 0,8 C 94 % 1006,8 hPa 0,0 l/m 0,00 h 0,00 h 52 W/m 1,4 km/h (1 Bft) 97,94 %
10.12.2020 14:00 2,0 C 2,0 C 1,1 C 94 % 1006,5 hPa 0,0 l/m 0,00 h 0,00 h 42 W/m 1,4 km/h (1 Bft) 98,22 %
10.12.2020 15:00 2,0 C 1,7 C 1,1 C 93 % 1006,3 hPa 0,0 l/m 0,00 h 0,00 h 16 W/m 1,4 km/h (1 Bft) 98,22 %
10.12.2020 16:00 1,9 C 1,4 C 0,6 C 92 % 1006,7 hPa 0,0 l/m 0,00 h 0,00 h 9 W/m 0,3 km/h (0 Bft) 98,10 %
10.12.2020 17:00 1,2 C 0,1 C -0,5 C 92 % 1006,5 hPa 0,0 l/m 0,00 h 0,00 h 0 W/m 0,0 km/h (0 Bft) 99,93 %
10.12.2020 18:00 0,6 C 0,1 C -0,6 C 93 % 1006,3 hPa 0,0 l/m 0,00 h 0,00 h 0 W/m 1,9 km/h (1 Bft) 99,27 %
10.12.2020 19:00 0,7 C 0,2 C -0,6 C 93 % 1006,0 hPa 0,0 l/m 0,00 h 0,00 h 0 W/m 7,6 km/h (2 Bft) 98,21 %
10.12.2020 20:00 0,4 C -0,0 C -1,0 C 93 % 1005,8 hPa 0,0 l/m 0,00 h 0,00 h 0 W/m 8,1 km/h (2 Bft) 99,36 %
10.12.2020 21:00 0,3 C 0,0 C -1,1 C 92 % 1005,7 hPa 0,0 l/m 0,00 h 0,00 h 0 W/m 13,0 km/h (3 Bft) 95,29 %
10.12.2020 22:00 0,3 C -0,0 C -1,2 C 92 % 1005,0 hPa 0,0 l/m 0,00 h 0,00 h 0 W/m 12,7 km/h (3 Bft) 99,29 %
10.12.2020 23:00 0,2 C -0,3 C -1,2 C 91 % 1004,4 hPa 0,0 l/m 0,00 h 0,00 h 0 W/m 17,9 km/h (3 Bft) 98,50 %
11.12.2020 00:00 0,4 C 0,0 C -0,7 C 92 % 1004,0 hPa 0,0 l/m 0,00 h 0,00 h 0 W/m 17,2 km/h (3 Bft) 95,20 %
11.12.2020 01:00 0,6 C 0,2 C -0,6 C 92 % 1002,6 hPa 0,0 l/m 0,00 h 0,00 h 0 W/m 14,6 km/h (3 Bft) 97,08 %
11.12.2020 02:00 0,9 C 0,6 C -0,6 C 91 % 1001,8 hPa 0,0 l/m 0,00 h 0,00 h 0 W/m 15,8 km/h (3 Bft) 95,51 %
11.12.2020 03:00 0,9 C 0,6 C -0,6 C 91 % 1000,7 hPa 0,0 l/m 0,00 h 0,00 h 0 W/m 14,6 km/h (3 Bft) 95,71 %
11.12.2020 04:00 0,8 C 0,3 C -0,6 C 92 % 1000,0 hPa 0,0 l/m 0,00 h 0,00 h 0 W/m 12,2 km/h (2 Bft) 96,86 %
11.12.2020 05:00 1,0 C 0,6 C -0,4 C 91 % 999,2 hPa 0,0 l/m 0,00 h 0,00 h 0 W/m 16,4 km/h (3 Bft) 96,80 %
11.12.2020 06:00 0,9 C 0,6 C -0,6 C 91 % 997,8 hPa 0,0 l/m 0,00 h 0,00 h 0 W/m 14,2 km/h (3 Bft) 97,97 %
11.12.2020 07:00 1,1 C 0,6 C -0,6 C 91 % 996,6 hPa 0,0 l/m 0,00 h 0,00 h 0 W/m 13,4 km/h (3 Bft) 96,10 %
11.12.2020 08:00 1,4 C 1,1 C -0,1 C 90 % 996,1 hPa 0,0 l/m 0,00 h 0,00 h 9 W/m 17,8 km/h (3 Bft) 98,30 %
11.12.2020 09:00 1,8 C 1,6 C 0,4 C 90 % 995,8 hPa 0,0 l/m 0,00 h 0,00 h 29 W/m 18,7 km/h (3 Bft) 96,35 %
11.12.2020 10:00 2,6 C 2,1 C 1,0 C 89 % 995,4 hPa 0,2 l/m 0,00 h 0,33 h 39 W/m 18,7 km/h (3 Bft) 97,65 %
11.12.2020 11:00 3,3 C 2,8 C 1,5 C 91 % 994,8 hPa 0,0 l/m 0,00 h 0,00 h 58 W/m 18,9 km/h (3 Bft) 96,50 %
11.12.2020 12:00 3,8 C 3,3 C 2,2 C 90 % 993,9 hPa 0,0 l/m 0,00 h 0,10 h 56 W/m 19,0 km/h (3 Bft) 96,48 %
11.12.2020 13:00 4,3 C 4,8 C 3,1 C 89 % 993,2 hPa 0,0 l/m 0,23 h 0,00 h 104 W/m 19,6 km/h (3 Bft) 96,66 %
11.12.2020 14:00 5,1 C 4,7 C 3,4 C 88 % 992,6 hPa 0,0 l/m 0,20 h 0,30 h 89 W/m 15,1 km/h (3 Bft) 95,87 %
11.12.2020 15:00 4,8 C 3,3 C 2,3 C 91 % 992,3 hPa 0,4 l/m 0,00 h 0,67 h 29 W/m 17,6 km/h (3 Bft) 96,51 %
11.12.2020 16:00 4,5 C 3,2 C 2,0 C 93 % 992,2 hPa 0,0 l/m 0,00 h 0,33 h 8 W/m 16,8 km/h (3 Bft) 97,22 %
11.12.2020 17:00 4,1 C 3,0 C 1,9 C 93 % 992,0 hPa 0,2 l/m 0,00 h 0,17 h 0 W/m 18,4 km/h (3 Bft) 97,51 %
11.12.2020 18:00 3,8 C 2,8 C 1,6 C 94 % 991,8 hPa 0,0 l/m 0,00 h 0,15 h 0 W/m 18,4 km/h (3 Bft) 98,25 %
11.12.2020 19:00 3,8 C 3,1 C 1,6 C 94 % 991,7 hPa 0,0 l/m 0,00 h 0,27 h 0 W/m 15,7 km/h (3 Bft) 99,71 %
11.12.2020 20:00 3,7 C 2,8 C 1,6 C 95 % 991,8 hPa 0,2 l/m 0,00 h 0,78 h 0 W/m 15,9 km/h (3 Bft) 95,76 %
11.12.2020 21:00 3,6 C 2,8 C 1,6 C 96 % 991,7 hPa 0,2 l/m 0,00 h 0,00 h 0 W/m 14,6 km/h (3 Bft) 99,57 %
11.12.2020 22:00 3,6 C 2,8 C 2,2 C 97 % 991,8 hPa 0,0 l/m 0,00 h 0,00 h 0 W/m 6,9 km/h (2 Bft) 99,14 %
11.12.2020 23:00 3,8 C 3,0 C 2,2 C 98 % 991,7 hPa 0,0 l/m 0,00 h 0,00 h 0 W/m 7,6 km/h (2 Bft) 96,41 %
12.12.2020 00:00 3,9 C 3,3 C 2,5 C 98 % 991,8 hPa 0,0 l/m 0,00 h 0,00 h 0 W/m 7,5 km/h (2 Bft) 99,56 %
12.12.2020 01:00 4,2 C 3,3 C 2,7 C 98 % 992,0 hPa 0,0 l/m 0,00 h 0,00 h 0 W/m 9,8 km/h (2 Bft) 97,86 %
12.12.2020 02:00 4,3 C 3,9 C 2,8 C 97 % 992,2 hPa 0,0 l/m 0,00 h 0,00 h 0 W/m 8,3 km/h (2 Bft) 97,79 %
12.12.2020 03:00 4,6 C 4,1 C 3,3 C 97 % 992,5 hPa 0,0 l/m 0,00 h 0,00 h 0 W/m 7,6 km/h (2 Bft) 97,07 %
12.12.2020 04:00 4,8 C 4,4 C 3,3 C 97 % 992,9 hPa 0,0 l/m 0,00 h 0,00 h 0 W/m 11,2 km/h (2 Bft) 94,93 %
12.12.2020 05:00 4,9 C 4,1 C 3,3 C 97 % 993,3 hPa 0,2 l/m 0,00 h 0,07 h 0 W/m 11,8 km/h (2 Bft) 95,65 %
12.12.2020 06:00 4,9 C 3,9 C 3,3 C 98 % 993,6 hPa 0,8 l/m 0,00 h 0,90 h 0 W/m 9,9 km/h (2 Bft) 95,32 %
12.12.2020 07:00 5,0 C 4,3 C 3,6 C 98 % 994,2 hPa 0,2 l/m 0,00 h 0,47 h 0 W/m 7,7 km/h (2 Bft) 95,56 %
12.12.2020 08:00 5,0 C 4,4 C 3,8 C 99 % 994,9 hPa 0,2 l/m 0,00 h 0,10 h 6 W/m 7,4 km/h (2 Bft) 96,44 %
12.12.2020 09:00 5,1 C 4,4 C 3,8 C 99 % 995,9 hPa 0,0 l/m 0,00 h 0,00 h 13 W/m 3,0 km/h (1 Bft) 97,86 %
12.12.2020 10:00 5,4 C 5,0 C 4,3 C 99 % 996,7 hPa 0,0 l/m 0,00 h 0,00 h 25 W/m 3,9 km/h (1 Bft) 98,43 %
12.12.2020 11:00 5,8 C 5,4 C 4,8 C 100 % 997,3 hPa 0,0 l/m 0,00 h 0,00 h 47 W/m 4,0 km/h (1 Bft) 97,30 %
12.12.2020 12:00 6,2 C 6,0 C 5,4 C 100 % 997,7 hPa 0,0 l/m 0,00 h 0,00 h 57 W/m 5,9 km/h (2 Bft) 99,15 %
12.12.2020 13:00 6,5 C 6,1 C 5,5 C 100 % 998,2 hPa 0,0 l/m 0,00 h 0,00 h 45 W/m 2,5 km/h (1 Bft) 97,67 %
12.12.2020 14:00 6,9 C 6,6 C 6,1 C 100 % 998,7 hPa 0,0 l/m 0,00 h 0,00 h 27 W/m 0,0 km/h (0 Bft) 97,73 %
12.12.2020 15:00 7,1 C 6,7 C 6,1 C 100 % 999,3 hPa 0,0 l/m 0,00 h 0,00 h 14 W/m 0,9 km/h (0 Bft) 99,43 %
12.12.2020 16:00 7,0 C 6,2 C 6,1 C 100 % 1000,1 hPa 0,0 l/m 0,00 h 0,03 h 7 W/m 1,2 km/h (1 Bft) 97,02 %
12.12.2020 17:00 7,1 C 6,7 C 6,1 C 100 % 1000,8 hPa 0,0 l/m 0,00 h 0,13 h 0 W/m 1,5 km/h (1 Bft) 98,08 %
12.12.2020 18:00 7,4 C 6,7 C 6,1 C 100 % 1001,4 hPa 0,2 l/m 0,00 h 0,13 h 0 W/m 0,0 km/h (0 Bft) 97,88 %
12.12.2020 19:00 7,4 C 6,7 C 6,1 C 100 % 1001,9 hPa 0,0 l/m 0,00 h 0,10 h 0 W/m 0,0 km/h (0 Bft) 96,78 %
12.12.2020 20:00 7,6 C 7,0 C 6,5 C 100 % 1002,6 hPa 0,2 l/m 0,00 h 0,47 h 0 W/m 0,2 km/h (0 Bft) 98,94 %
12.12.2020 21:00 7,8 C 7,2 C 6,6 C 100 % 1003,1 hPa 0,2 l/m 0,00 h 0,23 h 0 W/m 0,2 km/h (0 Bft) 97,42 %
12.12.2020 22:00 7,9 C 7,2 C 6,6 C 100 % 1003,7 hPa 0,2 l/m 0,00 h 0,47 h 0 W/m 2,4 km/h (1 Bft) 96,86 %
12.12.2020 23:00 7,9 C 7,2 C 6,6 C 100 % 1004,4 hPa 0,6 l/m 0,00 h 0,50 h 0 W/m 6,4 km/h (2 Bft) 99,43 %
13.12.2020 00:00 7,8 C 7,2 C 6,6 C 100 % 1004,9 hPa 0,0 l/m 0,00 h 0,07 h 0 W/m 4,9 km/h (1 Bft) 99,26 %
13.12.2020 01:00 7,8 C 7,2 C 6,6 C 100 % 1005,5 hPa 0,0 l/m 0,00 h 0,00 h 0 W/m 0,7 km/h (0 Bft) 99,25 %
13.12.2020 02:00 7,8 C 7,2 C 6,6 C 100 % 1006,1 hPa 0,0 l/m 0,00 h 0,00 h 0 W/m 1,9 km/h (1 Bft) 99,57 %
13.12.2020 03:00 7,8 C 7,2 C 6,6 C 100 % 1006,8 hPa 0,0 l/m 0,00 h 0,00 h 0 W/m 3,5 km/h (1 Bft) 96,73 %
13.12.2020 04:00 7,7 C 7,2 C 6,6 C 100 % 1007,3 hPa 0,0 l/m 0,00 h 0,00 h 0 W/m 1,7 km/h (1 Bft) 99,07 %
13.12.2020 05:00 7,7 C 7,2 C 6,6 C 100 % 1007,9 hPa 0,0 l/m 0,00 h 0,00 h 0 W/m 5,5 km/h (1 Bft) 99,22 %
13.12.2020 06:00 7,6 C 6,9 C 6,6 C 100 % 1008,5 hPa 0,4 l/m 0,00 h 0,23 h 0 W/m 4,1 km/h (1 Bft) 95,80 %
13.12.2020 07:00 7,4 C 6,7 C 6,5 C 100 % 1009,1 hPa 0,2 l/m 0,00 h 0,30 h 0 W/m 10,7 km/h (2 Bft) 99,51 %
13.12.2020 08:00 7,0 C 6,3 C 6,1 C 100 % 1009,6 hPa 0,0 l/m 0,00 h 0,00 h 5 W/m 15,5 km/h (3 Bft) 98,51 %
13.12.2020 09:00 6,7 C 6,1 C 6,1 C 100 % 1010,3 hPa 0,0 l/m 0,00 h 0,00 h 11 W/m 7,8 km/h (2 Bft) 97,06 %
13.12.2020 10:00 6,5 C 6,0 C 5,7 C 100 % 1010,9 hPa 0,0 l/m 0,00 h 0,00 h 39 W/m 6,2 km/h (2 Bft) 99,72 %
13.12.2020 11:00 7,0 C 6,8 C 6,7 C 99 % 1011,3 hPa 0,0 l/m 0,00 h 0,00 h 66 W/m 10,4 km/h (2 Bft) 97,65 %
13.12.2020 12:00 8,1 C 11,7 C 9,2 C 96 % 1011,1 hPa 0,0 l/m 0,82 h 0,00 h 231 W/m 8,4 km/h (2 Bft) 97,05 %
13.12.2020 13:00 8,9 C 8,7 C 7,7 C 88 % 1011,0 hPa 0,0 l/m 0,07 h 0,00 h 69 W/m 4,9 km/h (1 Bft) 97,57 %
13.12.2020 14:00 8,5 C 8,2 C 7,2 C 87 % 1011,1 hPa 0,0 l/m 0,00 h 0,00 h 60 W/m 5,6 km/h (1 Bft) 95,44 %
13.12.2020 15:00 8,2 C 7,6 C 6,4 C 85 % 1011,1 hPa 0,0 l/m 0,00 h 0,00 h 36 W/m 2,7 km/h (1 Bft) 99,57 %
13.12.2020 16:00 7,6 C 6,6 C 5,1 C 85 % 1011,1 hPa 0,0 l/m 0,00 h 0,00 h 6 W/m 2,6 km/h (1 Bft) 99,07 %
13.12.2020 17:00 6,6 C 5,8 C 4,4 C 87 % 1010,8 hPa 0,0 l/m 0,00 h 0,00 h 0 W/m 2,0 km/h (1 Bft) 96,30 %
13.12.2020 18:00 6,4 C 6,1 C 4,4 C 87 % 1010,6 hPa 0,0 l/m 0,00 h 0,00 h 0 W/m 10,3 km/h (2 Bft) 99,43 %
13.12.2020 19:00 6,4 C 5,7 C 4,4 C 85 % 1010,3 hPa 0,0 l/m 0,00 h 0,00 h 0 W/m 12,1 km/h (2 Bft) 95,01 %
13.12.2020 20:00 6,1 C 5,6 C 3,8 C 86 % 1010,2 hPa 0,0 l/m 0,00 h 0,00 h 0 W/m 8,4 km/h (2 Bft) 93,62 %
13.12.2020 21:00 5,8 C 5,2 C 3,8 C 88 % 1009,7 hPa 0,0 l/m 0,00 h 0,00 h 0 W/m 10,2 km/h (2 Bft) 99,03 %
13.12.2020 22:00 5,8 C 5,3 C 3,8 C 89 % 1009,3 hPa 0,0 l/m 0,00 h 0,00 h 0 W/m 9,5 km/h (2 Bft) 97,44 %
13.12.2020 23:00 5,9 C 5,4 C 3,8 C 89 % 1009,0 hPa 0,0 l/m 0,00 h 0,00 h 0 W/m 8,4 km/h (2 Bft) 98,22 %
Min-Datum _ 10.12.20 09.12.20 10.12.20 13.12.20 11.12.20 - - - - 07.12.20 09.12.20
_ Min-Zeit 08:02 20:58 06:54 14:54 18:54 - - - - 00:00 06:36
Minimum _ -1,5 C -2,2 C -2,8 C 84 % 991,6 hPa - - - - 0,0 km/h (0 Bft) 30,00 %
Max-Datum _ 13.12.20 13.12.20 13.12.20 12.12.20 13.12.20 07.12.20 09.12.20 07.12.20 13.12.20 11.12.20 07.12.20
_ Max-Zeit 12:58 12:50 12:48 11:04 11:32 01:00 12:07 07:56 13:02 10:24 03:10
Maximum _ 9,0 C 13,9 C 10,5 C 100 % 1011,4 hPa 1,4 l/m 0,05 h 0,07 h 291 W/m 41,8 km/h
S (6 Bft)
100,00 %
Durchschnitt _ 3,4 C 3,0 C 2,5 C 95 % 1003,2 hPa #14,4 l/m #5:43 h #23:42 h 50 W/m 6,4 km/h (2 Bft) 97,37 %
© 2020 W. Hausmann